• Join FlightAware (Why Join?)
  • Login
  • US Flag 
06:29AM EDT


 

Airport Tracker/Info


-or-


 

Live Flight TrackerFlight Track Log ✈ UAL906 ✈ 02-Jun-2013 ✈ KORD - EDDM / MUC

Flight Track Log - Related Links

Times and Time Zones

All times are in EDT time to prevent confusion due to time zone crossing. See the UAL906 flight status page for this flight to view local times or setup timezone preferences in your user account.

Time Position Orientation Groundspeed Altitude Reporting Facility
EDT Latitude Longitude Course Direction KTS MPH feet Rate Location/Type
07:07PM 41.9820 -87.9240 320° Northwest 150 173  Level FlightAware
07:08PM 42.0000 -87.9410 325° Northwest 172 198 1,600 2,520 Climbing FlightAware
07:08PM 42.0210 -87.9330 16° North 188 216 2,400 1,620 Climbing FlightAware
07:08PM 42.0330 -87.9190 41° Northeast 205 236 2,800 1,380 Climbing FlightAware
07:09PM 42.0530 -87.8950 42° Northeast 240 276 3,400 1,680 Climbing FlightAware
07:09PM 42.0780 -87.8640 43° Northeast 263 303 4,400 2,580 Climbing FlightAware
07:10PM 42.0900 -87.8490 43° Northeast 265 305 5,200 3,180 Climbing FlightAware
07:10PM 42.1110 -87.8140 51° Northeast 272 313 6,500 2,640 Climbing FlightAware
07:10PM 42.1220 -87.7800 66° East 285 328 7,400 2,640 Climbing FlightAware
07:11PM 42.1380 -87.7020 75° East 292 336 9,500 2,580 Climbing FlightAware
07:12PM 42.1540 -87.6260 74° East 309 356 11,200 2,520 Climbing FlightAware
07:13PM 42.1720 -87.5470 73° East 314 361 13,000 1,680 Climbing FlightAware
07:13PM 42.1910 -87.4640 73° East 361 415 13,600 1,020 Climbing FlightAware
07:14PM 42.2120 -87.3710 73° East 397 457 14,400 1,680 Climbing FlightAware
07:15PM 42.2340 -87.2670 74° East 412 474 16,000 1,800 Climbing FlightAware
07:15PM 42.2590 -87.1550 73° East 439 505 17,000 2,040 Climbing FlightAware
07:16PM 42.2780 -87.0350 78° East 441 507 19,000 2,160 Climbing FlightAware
07:17PM 42.2850 -86.9210 85° East 454 522 20,200 1,560 Climbing FlightAware
07:17PM 42.2890 -86.8120 87° East 468 539 21,100 1,380 Climbing FlightAware
07:18PM 42.2940 -86.6870 87° East 481 554 22,100 1,500 Climbing FlightAware
07:19PM 42.3000 -86.5490 87° East 490 564 23,300 1,500 Climbing FlightAware
07:20PM 42.3040 -86.4190 88° East 499 574 24,300 1,380 Climbing FlightAware
07:20PM 42.3090 -86.2900 87° East 509 586 25,300 1,380 Climbing FlightAware
07:21PM 42.3130 -86.1570 88° East 516 594 26,200 1,560 Climbing FlightAware
07:22PM 42.3140 -85.9730 90° East 514 592 27,900 1,680 Climbing FlightAware
07:23PM 42.3130 -85.8480 91° East 511 588 29,000 1,680 Climbing FlightAware
07:23PM 42.3110 -85.7170 91° East 507 583 30,200 1,560 Climbing FlightAware
07:24PM 42.3090 -85.5730 91° East 507 583 31,300 1,320 Climbing FlightAware
07:25PM 42.3070 -85.4370 91° East 507 583 32,200 1,080 Climbing FlightAware
07:25PM 42.3050 -85.3120 91° East 511 588 32,800 600 Climbing FlightAware
07:26PM 42.3030 -85.1850 91° East 517 595 33,000 120 Climbing FlightAware
07:27PM 42.3000 -85.0350 91° East 520 598 33,000  Level FlightAware
07:28PM 42.2980 -84.9050 91° East 520 598 33,000  Level FlightAware
07:28PM 42.2940 -84.7320 92° East 520 598 33,000  Level FlightAware
07:29PM 42.3290 -84.6600 57° Northeast 538 619 33,000  Level FlightAware
07:30PM 42.3910 -84.5100 61° Northeast 541 623 33,000  Level FlightAware
07:30PM 42.4490 -84.3890 57° Northeast 542 624 33,000  Level FlightAware
07:31PM 42.5050 -84.2760 56° Northeast 543 625 33,000  Level FlightAware
07:32PM 42.5600 -84.1640 56° Northeast 543 625 33,000  Level FlightAware
07:32PM 42.6220 -84.0390 56° Northeast 545 627 33,000  Level FlightAware
07:33PM 42.6820 -83.9190 56° Northeast 546 628 33,000  Level FlightAware
07:34PM 42.7360 -83.8110 56° Northeast 547 629 33,000  Level FlightAware
07:35PM 42.8010 -83.6790 56° Northeast 548 631 33,000  Level FlightAware
07:35PM 42.8490 -83.5810 56° Northeast 549 632 33,000  Level FlightAware
07:36PM 42.9150 -83.4450 56° Northeast 550 633 33,000  Level FlightAware
07:37PM 42.9690 -83.3340 56° Northeast 550 633 33,000  Level FlightAware
07:37PM 43.0280 -83.2100 57° Northeast 551 634 33,000  Level FlightAware
07:38PM 43.0810 -83.1010 56° Northeast 551 634 33,000  Level FlightAware
07:39PM 43.1350 -82.9890 57° Northeast 551 634 33,000  Level FlightAware
07:39PM 43.1990 -82.8540 57° Northeast 552 635 33,000  Level FlightAware
07:40PM 43.2740 -82.6960 57° Northeast 551 634 33,000  Level FlightAware
07:41PM 43.3370 -82.5630 57° Northeast 552 635 33,000  Level FlightAware
07:42PM 43.3920 -82.4460 57° Northeast 552 635 33,000  Level FlightAware
07:42PM 43.4490 -82.3240 57° Northeast 552 635 33,000  Level FlightAware
07:43PM 43.5090 -82.1960 57° Northeast 553 636 33,000  Level FlightAware
07:44PM 43.5600 -82.0860 57° Northeast 553 636 33,000  Level FlightAware
07:45PM 43.6260 -81.9440 57° Northeast 552 635 33,000  Level FlightAware
07:45PM 43.6820 -81.8210 58° Northeast 552 635 33,000  Level FlightAware
07:46PM 43.7350 -81.7050 58° Northeast 552 635 33,000  Level FlightAware
07:47PM 43.7920 -81.5800 58° Northeast 552 635 33,000  Level FlightAware
07:47PM 43.8480 -81.4560 58° Northeast 552 635 33,000  Level FlightAware
07:48PM 43.9110 -81.3190 57° Northeast 552 635 33,000  Level FlightAware
07:49PM 43.9700 -81.1880 58° Northeast 552 635 33,000  Level FlightAware
07:49PM 44.0200 -81.0760 58° Northeast 552 635 33,000  Level FlightAware
07:51PM 44.1220 -80.8460 58° Northeast 553 636 33,000  Level FlightAware
07:51PM 44.1840 -80.7070 58° Northeast 554 638 33,000  Level FlightAware
07:52PM 44.2360 -80.5890 58° Northeast 553 636 33,000  Level FlightAware
07:53PM 44.2910 -80.4640 58° Northeast 552 635 33,000  Level FlightAware
07:53PM 44.3510 -80.3270 58° Northeast 553 636 33,000  Level FlightAware
07:54PM 44.4040 -80.2050 59° Northeast 554 638 33,000  Level FlightAware
07:55PM 44.4640 -80.0670 59° Northeast 554 638 33,000  Level FlightAware
07:55PM 44.5100 -79.9600 59° Northeast 555 639 33,000  Level FlightAware
07:56PM 44.5690 -79.8220 59° Northeast 554 638 33,000  Level FlightAware
07:57PM 44.6280 -79.6820 59° Northeast 554 638 33,000  Level FlightAware
07:58PM 44.6790 -79.5560 60° Northeast 554 638 33,000  Level FlightAware
07:58PM 44.7360 -79.4150 60° Northeast 554 638 33,000  Level FlightAware
07:59PM 44.7730 -79.3220 61° Northeast 555 639 33,000  Level FlightAware
08:00PM 44.8360 -79.1660 60° Northeast 554 638 33,000  Level FlightAware
08:00PM 44.8880 -79.0360 61° Northeast 555 639 33,000  Level FlightAware
08:01PM 44.9440 -78.8970 60° Northeast 556 640 33,000  Level FlightAware
08:02PM 44.9970 -78.7630 61° Northeast 556 640 33,000  Level FlightAware
08:02PM 45.0480 -78.6330 61° Northeast 556 640 33,000  Level FlightAware
08:03PM 45.1060 -78.4860 61° Northeast 555 639 33,000  Level FlightAware
08:04PM 45.1550 -78.3600 61° Northeast 555 639 33,000  Level FlightAware
08:05PM 45.2110 -78.2170 61° Northeast 554 638 33,000  Level FlightAware
08:05PM 45.2590 -78.0930 61° Northeast 553 636 33,000  Level FlightAware
08:06PM 45.3150 -77.9480 61° Northeast 551 634 33,000  Level FlightAware
08:07PM 45.3570 -77.8370 62° Northeast 550 633 33,000  Level FlightAware
08:07PM 45.4050 -77.7110 61° Northeast 550 633 33,000  Level FlightAware
08:08PM 45.4610 -77.5650 61° Northeast 548 631 33,000  Level FlightAware
08:09PM 45.5080 -77.4400 62° Northeast 548 631 33,000 60 Level FlightAware
08:09PM 45.5620 -77.2980 61° Northeast 545 627 33,100  Climbing FlightAware
08:10PM 45.6080 -77.1740 62° Northeast 544 626 33,000 -120 Descending FlightAware
08:11PM 45.6460 -77.0730 62° Northeast 542 624 33,000  Level FlightAware
08:11PM 45.7030 -76.9190 62° Northeast 541 623 33,000  Level FlightAware
08:12PM 45.7690 -76.7390 62° Northeast 537 618 33,000  Level FlightAware
08:13PM 45.8180 -76.6070 62° Northeast 536 617 33,000  Level FlightAware
08:14PM 45.8580 -76.4960 63° Northeast 535 616 33,000  Level FlightAware
08:14PM 45.9100 -76.3550 62° Northeast 535 616 33,000  Level FlightAware
08:15PM 45.9820 -76.1540 63° Northeast 534 615 33,000  Level FlightAware
08:16PM 46.0390 -75.9960 62° Northeast 534 615 33,000  Level FlightAware
08:17PM 46.0880 -75.8580 63° Northeast 533 613 33,000  Level FlightAware
08:18PM 46.1330 -75.7310 63° Northeast 534 615 33,000  Level FlightAware
08:18PM 46.1780 -75.6040 63° Northeast 534 615 33,000  Level FlightAware
08:19PM 46.2290 -75.4580 63° Northeast 534 615 33,000 60 Level FlightAware
08:20PM 46.2730 -75.3320 63° Northeast 533 613 33,100  Climbing FlightAware
08:21PM 46.3230 -75.1890 63° Northeast 532 612 33,000 -120 Descending FlightAware
08:21PM 46.3700 -75.0520 64° Northeast 533 613 33,000  Level FlightAware
08:22PM 46.4110 -74.9340 63° Northeast 532 612 33,000  Level FlightAware
08:23PM 46.4600 -74.7910 64° Northeast 531 611 33,000  Level FlightAware
08:23PM 46.5090 -74.6480 63° Northeast 529 609 33,000  Level FlightAware
08:24PM 46.5500 -74.5250 64° Northeast 528 608 33,000  Level FlightAware
08:25PM 46.6130 -74.3410 63° Northeast 528 608 33,000  Level FlightAware
08:26PM 46.6590 -74.2000 65° Northeast 527 606 33,000  Level FlightAware
08:26PM 46.7010 -74.0770 63° Northeast 526 605 33,000  Level FlightAware
08:27PM 46.7400 -73.9580 64° Northeast 525 604 33,000  Level FlightAware
08:28PM 46.7840 -73.8250 64° Northeast 525 604 33,000  Level FlightAware
08:29PM 46.8350 -73.6690 64° Northeast 524 603 33,000  Level FlightAware
08:29PM 46.8730 -73.5520 65° Northeast 524 603 33,000  Level FlightAware
08:30PM 46.9200 -73.4090 64° Northeast 525 604 33,000  Level FlightAware
08:31PM 46.9660 -73.2660 65° Northeast 526 605 33,000  Level FlightAware
08:31PM 47.0040 -73.1490 64° Northeast 527 606 33,000 60 Level FlightAware
08:32PM 47.0500 -73.0020 65° Northeast 526 605 33,100  Climbing FlightAware
08:33PM 47.0940 -72.8670 64° Northeast 526 605 33,000 -120 Descending FlightAware
08:33PM 47.1350 -72.7370 65° Northeast 524 603 33,000  Level FlightAware
08:34PM 47.1800 -72.5920 65° Northeast 523 602 33,000  Level FlightAware
08:35PM 47.2200 -72.4640 65° Northeast 523 602 33,000  Level FlightAware
08:36PM 47.2650 -72.3190 65° Northeast 524 603 33,000  Level FlightAware
08:36PM 47.3000 -72.2060 65° Northeast 525 604 33,000  Level FlightAware
08:37PM 47.3460 -72.0590 65° Northeast 525 604 33,000  Level FlightAware
08:38PM 47.3850 -71.9300 66° East 526 605 33,000  Level FlightAware
08:38PM 47.4350 -71.7670 66° East 527 606 33,000  Level FlightAware
08:39PM 47.4740 -71.6360 66° East 529 609 33,000  Level FlightAware
08:40PM 47.5090 -71.5210 66° East 530 610 33,000  Level FlightAware
08:40PM 47.5540 -71.3720 66° East 531 611 33,000  Level FlightAware
08:41PM 47.5980 -71.2220 66° East 531 611 33,000 60 Level FlightAware
08:42PM 47.6330 -71.1050 66° East 532 612 33,100  Climbing FlightAware
08:43PM 47.6820 -70.9390 66° East 532 612 33,000 -120 Descending FlightAware
08:43PM 47.7210 -70.8050 67° East 534 615 33,000  Level FlightAware
08:44PM 47.7650 -70.6540 67° East 534 615 33,000  Level FlightAware
08:45PM 47.8040 -70.5210 66° East 535 616 33,000  Level FlightAware
08:45PM 47.8430 -70.3850 67° East 535 616 33,000 60 Level FlightAware
08:46PM 47.8750 -70.2730 67° East 535 616 33,100  Climbing FlightAware
08:47PM 47.9120 -70.1410 67° East 535 616 33,000 -120 Descending FlightAware
08:47PM 47.9570 -69.9820 67° East 530 610 33,000  Level FlightAware
08:48PM 48.0000 -69.8300 67° East 528 608 33,000  Level FlightAware
08:49PM 48.0360 -69.7010 67° East 524 603 33,000  Level FlightAware
08:49PM 48.0740 -69.5630 68° East 520 598 33,000  Level FlightAware
08:50PM 48.1050 -69.4540 67° East 520 598 33,000  Level FlightAware
08:51PM 48.1450 -69.3110 67° East 517 595 33,000  Level FlightAware
08:52PM 48.1830 -69.1760 67° East 517 595 33,000  Level FlightAware
08:53PM 48.2410 -68.9710 67° East 517 595 33,000  Level FlightAware
08:53PM 48.2690 -68.8700 67° East 517 595 33,000  Level FlightAware
08:54PM 48.3070 -68.7350 67° East 517 595 33,000  Level FlightAware
08:55PM 48.3360 -68.6330 67° East 517 595 33,000  Level FlightAware
08:56PM 48.3800 -68.4760 67° East 517 595 33,000  Level FlightAware
08:56PM 48.4090 -68.3740 67° East 517 595 33,000  Level FlightAware
08:57PM 48.4490 -68.2330 67° East 517 595 33,000  Level FlightAware
08:58PM 48.4780 -68.1290 67° East 517 595 33,000  Level FlightAware
08:59PM 48.5160 -67.9930 67° East 517 595 33,000  Level FlightAware
08:59PM 48.5450 -67.8910 67° East 517 595 33,000  Level FlightAware
09:00PM 48.5750 -67.7840 67° East 517 595 33,000  Level FlightAware
09:00PM 48.6000 -67.3667 67° East 520 598 33,000  Level Montreal Center
09:01PM 48.6167 -67.3167 63° Northeast 520 598 33,000  Level Moncton Center
09:01PM 48.6333 -67.1833 79° East 520 598 33,000  Level Montreal Center
09:02PM 48.6667 -67.0833 63° Northeast 520 598 33,000  Level Moncton Center
09:03PM 48.7167 -66.8833 69° East 520 598 33,000  Level Moncton Center
09:04PM 48.7667 -66.6833 69° East 520 598 33,000  Level Moncton Center
09:05PM 48.8000 -66.4833 76° East 510 587 33,000  Level Moncton Center
09:06PM 48.8333 -66.2833 76° East 510 587 33,000  Level Moncton Center
09:07PM 48.9000 -66.0500 66° East 510 587 33,000  Level Moncton Center
09:08PM 48.9333 -65.8500 76° East 520 598 33,000  Level Moncton Center
09:09PM 48.9833 -65.6500 69° East 520 598 33,000  Level Moncton Center
09:10PM 49.0333 -65.4500 69° East 520 598 33,000  Level Moncton Center
09:11PM 49.0667 -65.2167 78° East 520 598 33,000  Level Moncton Center
09:12PM 49.1167 -65.0167 69° East 520 598 33,000  Level Moncton Center
09:13PM 49.1500 -64.7833 78° East 520 598 33,000  Level Moncton Center
09:14PM 49.2000 -64.5833 69° East 530 610 33,000  Level Moncton Center
09:15PM 49.2333 -64.3667 77° East 530 610 33,000  Level Moncton Center
09:16PM 49.2833 -64.1333 72° East 530 610 33,000  Level Moncton Center
09:17PM 49.3167 -63.9333 76° East 530 610 33,000  Level Moncton Center
09:18PM 49.3667 -63.7333 69° East 530 610 33,000  Level Moncton Center
09:19PM 49.4167 -63.5000 72° East 530 610 33,000  Level Moncton Center
09:20PM 49.4500 -63.2833 77° East 530 610 33,000  Level Moncton Center
09:21PM 49.5000 -63.0500 72° East 540 621 33,000  Level Moncton Center
09:22PM 49.5500 -62.8167 72° East 530 610 33,000  Level Moncton Center
09:23PM 49.5833 -62.6167 76° East 530 610 33,000  Level Moncton Center
09:24PM 49.6167 -62.4000 77° East 530 610 33,000  Level Moncton Center
09:25PM 49.6500 -62.1667 77° East 540 621 33,000  Level Moncton Center
09:26PM 49.7000 -61.9333 72° East 540 621 33,000  Level Moncton Center
09:27PM 49.7333 -61.7333 75° East 530 610 33,000  Level Moncton Center
09:28PM 49.7667 -61.5000 77° East 530 610 33,000  Level Moncton Center
09:29PM 49.8167 -61.2833 70° East 540 621 33,000  Level Moncton Center
09:30PM 49.8500 -61.0667 77° East 530 610 33,000  Level Moncton Center
09:31PM 49.8833 -60.8333 77° East 530 610 33,000  Level Moncton Center
09:32PM 49.9167 -60.6333 75° East 530 610 33,000  Level Moncton Center
09:33PM 49.9500 -60.3833 78° East 520 598 33,000  Level Moncton Center
09:34PM 49.9833 -60.1833 75° East 530 610 33,000  Level Moncton Center
09:35PM 50.0333 -59.9333 73° East 530 610 33,000  Level Moncton Center
09:36PM 50.0667 -59.7333 75° East 530 610 33,000 120 Level Moncton Center
09:42PM 50.3430 -58.4000 75° East 534 615 34,000 120 Climbing FlightAware
09:42PM 50.3750 -58.2710 69° East 534 615 34,000  Level FlightAware
09:43PM 50.4130 -58.1130 69° East 535 616 34,000  Level FlightAware
09:44PM 50.4440 -57.9800 70° East 536 617 34,000  Level FlightAware
09:44PM 50.4810 -57.8260 69° East 537 618 34,000  Level FlightAware
09:45PM 50.5140 -57.6900 69° East 537 618 34,000  Level FlightAware
09:46PM 50.5500 -57.5440 69° East 537 618 34,000  Level FlightAware
09:46PM 50.5770 -57.4320 69° East 537 618 34,000  Level FlightAware
09:47PM 50.6140 -57.2800 69° East 537 618 34,000  Level FlightAware
09:48PM 50.6580 -57.0600 72° East 541 623 34,000  Level FlightAware
09:49PM 50.6940 -56.9010 70° East 34,000  Level FlightAware
09:50PM 50.7730 -56.5530 70° East 544 626 34,000  Level FlightAware
09:51PM 50.8190 -56.3440 71° East 544 626 34,000  Level FlightAware
09:52PM 50.8530 -56.1940 70° East 544 626 34,000  Level FlightAware
09:52PM 50.8800 -56.0790 70° East 544 626 34,000  Level FlightAware
09:53PM 50.9150 -55.9260 70° East 544 626 34,000  Level FlightAware
09:54PM 50.9420 -55.8080 70° East 544 626 34,000  Level FlightAware
09:55PM 50.9860 -55.6140 70° East 544 626 34,000  Level FlightAware
09:57PM 51.1040 -54.9950 73° East 550 633 34,000  Level FlightAware
09:58PM 51.1300 -54.8670 72° East 550 633 34,000  Level FlightAware
09:58PM 51.1620 -54.7100 72° East 550 633 34,000  Level FlightAware
09:59PM 51.1860 -54.5920 72° East 550 633 34,000  Level FlightAware
10:00PM 51.2260 -54.3950 72° East 550 633 34,000  Level FlightAware
10:01PM 51.2500 -54.2760 72° East 550 633 34,000  Level FlightAware
10:01PM 51.2820 -54.1190 72° East 550 633 34,000  Level FlightAware
10:02PM 51.3060 -54.0000 72° East 550 633 34,000  Level FlightAware
10:03PM 51.3380 -53.8420 72° East 550 633 34,000  Level FlightAware
10:03PM 51.3640 -53.7140 72° East 550 633 34,000  Level FlightAware
10:04PM 51.3890 -53.5920 72° East 550 633 34,000  Level FlightAware
10:05PM 51.4220 -53.4300 72° East 550 633 34,000  Level FlightAware
10:05PM 51.4460 -53.3110 72° East 550 633 34,000  Level FlightAware
10:06PM 51.4780 -53.1530 72° East 550 633 34,000  Level FlightAware
10:07PM 51.5010 -53.0370 72° East 550 633 34,000  Level FlightAware
10:07PM 51.5667 -52.4667 72° East 560 644 34,000  Level Gander Center
10:08PM 51.5667 -52.4167 90° East 560 644 34,000  Level Gander Center
10:09PM 51.6167 -52.1667 72° East 550 633 34,000  Level Gander Center
10:09PM 51.6667 -52.0000 64° Northeast 560 644 34,000  Level Gander Center
10:10PM 51.6833 -51.7500 84° East 560 644 34,000  Level Gander Center
10:11PM 51.7333 -51.5167 71° East 560 644 34,000  Level Gander Center
10:12PM 51.7500 -51.4333 72° East 560 644 34,000  Level Gander Center
10:13PM 51.7833 -51.2000 77° East 560 644 34,000  Level Gander Center
10:14PM 51.8167 -50.9500 78° East 560 644 34,000  Level Gander Center
10:15PM 51.8667 -50.6167 76° East 410 472 34,000  Level Gander Center
10:16PM 51.9000 -50.3667 78° East 600 690 34,000  Level Gander Center
10:17PM 51.9500 -50.1000 73° East 560 644 34,000  Level Gander Center
10:18PM 51.9833 -49.8833 76° East 550 633 34,000  Level Gander Center
10:20PM 52.0244 -49.6044 76° East  Level FlightAware Approximate
10:27PM 52.2342 -48.0937 77° East  Level FlightAware Approximate
10:28PM 52.2626 -47.8767 78° East  Level FlightAware Approximate
10:29PM 52.2906 -47.6595 78° East  Level FlightAware Approximate
10:30PM 52.3182 -47.4420 78° East  Level FlightAware Approximate
10:31PM 52.3454 -47.2242 78° East  Level FlightAware Approximate
10:32PM 52.3722 -47.0061 79° East  Level FlightAware Approximate
10:33PM 52.3985 -46.7878 79° East  Level FlightAware Approximate
10:34PM 52.4245 -46.5693 79° East  Level FlightAware Approximate
10:35PM 52.4501 -46.3505 79° East  Level FlightAware Approximate
10:36PM 52.4753 -46.1314 79° East  Level FlightAware Approximate
10:37PM 52.5001 -45.9121 79° East  Level FlightAware Approximate
10:38PM 52.5245 -45.6925 80° East  Level FlightAware Approximate
10:39PM 52.5484 -45.4727 80° East  Level FlightAware Approximate
10:40PM 52.5720 -45.2527 80° East  Level FlightAware Approximate
10:41PM 52.5951 -45.0324 80° East  Level FlightAware Approximate
10:42PM 52.6179 -44.8119 80° East  Level FlightAware Approximate
10:43PM 52.6402 -44.5911 80° East  Level FlightAware Approximate
10:44PM 52.6621 -44.3702 81° East  Level FlightAware Approximate
10:45PM 52.6836 -44.1490 81° East  Level FlightAware Approximate
10:46PM 52.7047 -43.9276 81° East  Level FlightAware Approximate
10:47PM 52.7252 -43.7057 81° East  Level FlightAware Approximate
10:48PM 52.7450 -43.4838 82° East  Level FlightAware Approximate
10:49PM 52.7644 -43.2617 82° East  Level FlightAware Approximate
10:50PM 52.7834 -43.0394 82° East  Level FlightAware Approximate
10:51PM 52.8020 -42.8168 82° East  Level FlightAware Approximate
10:52PM 52.8201 -42.5942 82° East  Level FlightAware Approximate
10:53PM 52.8379 -42.3713 82° East  Level FlightAware Approximate
10:54PM 52.8552 -42.1482 83° East  Level FlightAware Approximate
10:55PM 52.8721 -41.9249 83° East  Level FlightAware Approximate
10:56PM 52.8886 -41.7015 83° East  Level FlightAware Approximate
10:57PM 52.9046 -41.4780 83° East  Level FlightAware Approximate
10:58PM 52.9203 -41.2542 83° East  Level FlightAware Approximate
10:59PM 52.9355 -41.0303 83° East  Level FlightAware Approximate
11:00PM 52.9503 -40.8063 84° East  Level FlightAware Approximate
11:01PM 52.9647 -40.5820 84° East  Level FlightAware Approximate
11:02PM 52.9786 -40.3577 84° East  Level FlightAware Approximate
11:03PM 52.9922 -40.1332 84° East  Level FlightAware Approximate
11:04PM 53.0125 -39.9105 77° East  Level FlightAware Approximate
11:05PM 53.0428 -39.6903 77° East  Level FlightAware Approximate
11:06PM 53.0728 -39.4699 77° East  Level FlightAware Approximate
11:07PM 53.1023 -39.2491 77° East  Level FlightAware Approximate
11:08PM 53.1314 -39.0281 78° East  Level FlightAware Approximate
11:09PM 53.1601 -38.8068 78° East  Level FlightAware Approximate
11:10PM 53.1884 -38.5851 78° East  Level FlightAware Approximate
11:11PM 53.2163 -38.3632 78° East  Level FlightAware Approximate
11:12PM 53.2438 -38.1410 78° East  Level FlightAware Approximate
11:13PM 53.2709 -37.9185 78° East  Level FlightAware Approximate
11:14PM 53.2975 -37.6957 79° East  Level FlightAware Approximate
11:15PM 53.3241 -37.4727 78° East  Level FlightAware Approximate
11:16PM 53.3510 -37.2497 78° East  Level FlightAware Approximate
11:17PM 53.3775 -37.0265 79° East  Level FlightAware Approximate
11:18PM 53.4035 -36.8030 79° East  Level FlightAware Approximate
11:19PM 53.4292 -36.5792 79° East  Level FlightAware Approximate
11:20PM 53.4544 -36.3551 79° East  Level FlightAware Approximate
11:21PM 53.4793 -36.1308 79° East  Level FlightAware Approximate
11:22PM 53.5037 -35.9062 80° East  Level FlightAware Approximate
11:23PM 53.5276 -35.6813 80° East  Level FlightAware Approximate
11:24PM 53.5512 -35.4562 80° East  Level FlightAware Approximate
11:25PM 53.5743 -35.2309 80° East  Level FlightAware Approximate
11:26PM 53.5970 -35.0053 80° East  Level FlightAware Approximate
11:27PM 53.6193 -34.7794 80° East  Level FlightAware Approximate
11:28PM 53.6412 -34.5534 81° East  Level FlightAware Approximate
11:29PM 53.6626 -34.3271 81° East  Level FlightAware Approximate
11:30PM 53.6836 -34.1005 81° East  Level FlightAware Approximate
11:31PM 53.7042 -33.8738 81° East  Level FlightAware Approximate
11:32PM 53.7243 -33.6468 81° East  Level FlightAware Approximate
11:33PM 53.7440 -33.4196 82° East  Level FlightAware Approximate
11:34PM 53.7633 -33.1922 82° East  Level FlightAware Approximate
11:35PM 53.7822 -32.9646 82° East  Level FlightAware Approximate
11:36PM 53.8006 -32.7368 82° East  Level FlightAware Approximate
11:37PM 53.8187 -32.5088 82° East  Level FlightAware Approximate
11:38PM 53.8374 -32.2808 82° East  Level FlightAware Approximate
11:39PM 53.8557 -32.0527 82° East  Level FlightAware Approximate
11:40PM 53.8735 -31.8244 82° East  Level FlightAware Approximate
11:41PM 53.8909 -31.5958 83° East  Level FlightAware Approximate
11:42PM 53.9079 -31.3671 83° East  Level FlightAware Approximate
11:43PM 53.9244 -31.1382 83° East  Level FlightAware Approximate
11:44PM 53.9405 -30.9091 83° East  Level FlightAware Approximate
11:45PM 53.9562 -30.6798 83° East  Level FlightAware Approximate
11:46PM 53.9714 -30.4504 83° East  Level FlightAware Approximate
11:47PM 53.9859 -30.2261 84° East  Level FlightAware Approximate
11:48PM 53.9999 -30.0016 84° East  Level FlightAware Approximate
11:49PM 54.0091 -29.7763 86° East  Level FlightAware Approximate
11:50PM 54.0178 -29.5509 86° East  Level FlightAware Approximate
11:51PM 54.0262 -29.3255 86° East  Level FlightAware Approximate
11:52PM 54.0341 -29.0999 86° East  Level FlightAware Approximate
11:53PM 54.0415 -28.8743 87° East  Level FlightAware Approximate
11:54PM 54.0486 -28.6486 87° East  Level FlightAware Approximate
11:55PM 54.0552 -28.4228 87° East  Level FlightAware Approximate
11:56PM 54.0614 -28.1969 87° East  Level FlightAware Approximate
11:57PM 54.0672 -27.9710 87° East  Level FlightAware Approximate
11:58PM 54.0726 -27.7450 88° East  Level FlightAware Approximate
11:59PM 54.0775 -27.5190 88° East  Level FlightAware Approximate
12:00AM 54.0820 -27.2929 88° East  Level FlightAware Approximate
12:01AM 54.0861 -27.0667 88° East  Level FlightAware Approximate
12:02AM 54.0898 -26.8405 88° East  Level FlightAware Approximate
12:03AM 54.0930 -26.6143 89° East  Level FlightAware Approximate
12:04AM 54.0958 -26.3881 89° East  Level FlightAware Approximate
12:05AM 54.0982 -26.1618 89° East  Level FlightAware Approximate
12:06AM 54.1002 -25.9355 89° East  Level FlightAware Approximate
12:07AM 54.1017 -25.7092 89° East  Level FlightAware Approximate
12:08AM 54.1029 -25.4828 89° East  Level FlightAware Approximate
12:09AM 54.1035 -25.2565 90° East  Level FlightAware Approximate
12:10AM 54.1038 -25.0301 90° East  Level FlightAware Approximate
12:11AM 54.1036 -24.8038 90° East  Level FlightAware Approximate
12:12AM 54.1031 -24.5774 90° East  Level FlightAware Approximate
12:13AM 54.1021 -24.3511 90° East  Level FlightAware Approximate
12:14AM 54.1006 -24.1248 91° East  Level FlightAware Approximate
12:15AM 54.0988 -23.8985 91° East  Level FlightAware Approximate
12:16AM 54.0965 -23.6722 91° East  Level FlightAware Approximate
12:17AM 54.0938 -23.4459 91° East  Level FlightAware Approximate
12:18AM 54.0907 -23.2197 91° East  Level FlightAware Approximate
12:19AM 54.0871 -22.9935 91° East  Level FlightAware Approximate
12:20AM 54.0831 -22.7673 92° East  Level FlightAware Approximate
12:21AM 54.0787 -22.5412 92° East  Level FlightAware Approximate
12:22AM 54.0739 -22.3152 92° East  Level FlightAware Approximate
12:23AM 54.0687 -22.0892 92° East  Level FlightAware Approximate
12:24AM 54.0630 -21.8632 92° East  Level FlightAware Approximate
12:25AM 54.0569 -21.6373 93° East  Level FlightAware Approximate
12:26AM 54.0504 -21.4115 93° East  Level FlightAware Approximate
12:27AM 54.0434 -21.1858 93° East  Level FlightAware Approximate
12:28AM 54.0361 -20.9601 93° East  Level FlightAware Approximate
12:29AM 54.0283 -20.7346 93° East  Level FlightAware Approximate
12:30AM 54.0201 -20.5091 93° East  Level FlightAware Approximate
12:31AM 54.0115 -20.2837 94° East  Level FlightAware Approximate
12:32AM 54.0024 -20.0584 94° East  Level FlightAware Approximate
12:33AM 53.9901 -19.8336 96° East  Level FlightAware Approximate
12:34AM 53.9765 -19.6091 96° East  Level FlightAware Approximate
12:35AM 53.9623 -19.3843 96° East  Level FlightAware Approximate
12:36AM 53.9478 -19.1596 96° East  Level FlightAware Approximate
12:37AM 53.9328 -18.9352 96° East  Level FlightAware Approximate
12:38AM 53.9174 -18.7108 97° East  Level FlightAware Approximate
12:39AM 53.9016 -18.4867 97° East  Level FlightAware Approximate
12:40AM 53.8854 -18.2627 97° East  Level FlightAware Approximate
12:41AM 53.8688 -18.0389 97° East  Level FlightAware Approximate
12:42AM 53.8517 -17.8153 97° East  Level FlightAware Approximate
12:43AM 53.8343 -17.5919 97° East  Level FlightAware Approximate
12:44AM 53.8164 -17.3686 98° East  Level FlightAware Approximate
12:45AM 53.7981 -17.1455 98° East  Level FlightAware Approximate
12:46AM 53.7794 -16.9227 98° East  Level FlightAware Approximate
12:47AM 53.7602 -16.7000 98° East  Level FlightAware Approximate
12:48AM 53.7407 -16.4776 98° East  Level FlightAware Approximate
12:49AM 53.7208 -16.2553 99° East  Level FlightAware Approximate
12:50AM 53.7004 -16.0333 99° East  Level FlightAware Approximate
12:51AM 53.6796 -15.8115 99° East  Level FlightAware Approximate
12:52AM 53.6585 -15.5899 99° East  Level FlightAware Approximate
12:53AM 53.6369 -15.3685 99° East  Level FlightAware Approximate
12:54AM 53.6149 -15.1474 99° East  Level FlightAware Approximate
12:55AM 53.5921 -14.9265 100° East  Level FlightAware Approximate
12:56AM 53.5681 -14.7062 100° East  Level FlightAware Approximate
12:57AM 53.5438 -14.4861 100° East  Level FlightAware Approximate
12:57AM 53.8960 -14.2390 101° East 465 535 34,000  Level FlightAware
12:58AM 53.5190 -14.2663 101° East  Level FlightAware Approximate
12:58AM 53.8700 -14.0870 106° East 465 535 34,100  Level FlightAware
12:58AM 53.8490 -13.9590 105° East 461 531 35,100 1,560 Climbing FlightAware
12:59AM 53.8230 -13.8000 105° East 457 526 36,300 1,320 Climbing FlightAware
01:00AM 53.8020 -13.6710 105° East 456 525 37,000 480 Climbing FlightAware
01:00AM 53.7760 -13.5130 106° East 459 528 37,000  Level FlightAware
01:01AM 53.7420 -13.3140 106° East 458 527 37,000  Level FlightAware
01:02AM 53.7190 -13.1770 106° East 455 524 37,000  Level FlightAware
01:03AM 53.6910 -13.0140 106° East 456 525 37,000  Level FlightAware
01:03AM 53.6710 -12.8940 106° East 456 525 37,000  Level FlightAware
01:04AM 53.6420 -12.7300 107° East 456 525 37,000  Level FlightAware
01:05AM 53.6200 -12.6060 107° East 456 525 37,000  Level FlightAware
01:06AM 53.5920 -12.4470 106° East 458 527 37,000  Level FlightAware
01:06AM 53.5680 -12.3110 106° East 459 528 37,000  Level FlightAware
01:07AM 53.5400 -12.1550 107° East 460 529 37,000  Level FlightAware
01:08AM 53.5160 -12.0200 107° East 459 528 37,000  Level FlightAware
01:08AM 53.4890 -11.8760 107° East 462 532 37,000  Level FlightAware
01:09AM 53.4640 -11.7380 107° East 463 533 37,000  Level FlightAware
01:10AM 53.4340 -11.5790 108° East 463 533 37,000  Level FlightAware
01:10AM 53.4100 -11.4460 107° East 464 534 37,000  Level FlightAware
01:11AM 53.3820 -11.2980 108° East 465 535 37,000  Level FlightAware
01:12AM 53.3560 -11.1600 107° East 465 535 37,000  Level FlightAware
01:12AM 53.3280 -11.0130 108° East 464 534 37,000  Level FlightAware
01:13AM 53.3020 -10.8800 108° East 467 537 37,000  Level FlightAware
01:14AM 53.2710 -10.7210 108° East 466 536 37,000  Level FlightAware
01:15AM 53.2430 -10.5780 108° East 467 537 37,000  Level FlightAware
01:15AM 53.2160 -10.4370 108° East 466 536 37,000  Level FlightAware
01:16AM 53.1870 -10.2910 108° East 466 536 37,000  Level FlightAware
01:17AM 53.1590 -10.1510 108° East 465 535 37,000  Level FlightAware
01:17AM 53.1320 -10.0200 109° East 464 534 37,000  Level FlightAware
01:18AM 53.0990 -9.8590 109° East 465 535 37,000  Level FlightAware
01:19AM 53.0720 -9.7220 108° East 465 535 37,000  Level FlightAware
01:20AM 53.0430 -9.5840 109° East 465 535 37,000  Level FlightAware
01:20AM 53.0170 -9.4590 109° East 463 533 37,000  Level FlightAware
01:21AM 52.9860 -9.3080 109° East 465 535 37,000  Level FlightAware
01:22AM 52.9530 -9.1500 109° East 465 535 37,000  Level FlightAware
01:22AM 52.9260 -9.0230 109° East 465 535 37,000  Level FlightAware
01:22AM 52.9211 -9.0032 109° East 456 525 37,000  Level FlightAware UK
01:23AM 52.9128 -8.9631 109° East 456 525 37,000  Level FlightAware UK
01:23AM 52.8999 -8.9024 109° East 458 527 37,000  Level FlightAware UK
01:23AM 52.8950 -8.8780 109° East 465 535 37,000  Level FlightAware
01:23AM 52.8785 -8.8016 109° East 458 527 37,000  Level FlightAware UK
01:24AM 52.8655 -8.7411 110° East 458 527 37,000  Level FlightAware UK
01:24AM 52.8650 -8.7380 110° East 465 535 37,000  Level FlightAware
01:24AM 52.8481 -8.6605 110° East 458 527 37,000  Level FlightAware UK
01:24AM 52.8351 -8.5997 110° East 458 527 37,000  Level FlightAware UK
01:24AM 52.8310 -8.5820 110° East 464 534 37,000  Level FlightAware
01:25AM 52.8174 -8.5192 110° East 458 527 37,000  Level FlightAware UK
01:25AM 52.8042 -8.4589 110° East 458 527 37,000  Level FlightAware UK
01:25AM 52.7912 -8.3983 109° East 458 527 37,000  Level FlightAware UK
01:25AM 52.7920 -8.4030 109° East 467 537 37,000  Level FlightAware
01:26AM 52.7779 -8.3371 109° East 460 529 37,000  Level FlightAware UK
01:26AM 52.7645 -8.2767 110° East 458 527 37,000  Level FlightAware UK
01:26AM 52.7620 -8.2660 110° East 467 537 37,000  Level FlightAware
01:26AM 52.7467 -8.1965 110° East 460 529 37,000  Level FlightAware UK
01:27AM 52.7335 -8.1363 110° East 460 529 37,000  Level FlightAware UK
01:27AM 52.7280 -8.1130 110° East 466 536 37,000  Level FlightAware
01:27AM 52.7158 -8.0563 110° East 458 527 37,000  Level FlightAware UK
01:27AM 52.7024 -7.9964 110° East 458 527 37,000  Level FlightAware UK
01:27AM 52.7010 -7.9920 110° East 466 536 37,000  Level FlightAware
01:28AM 52.6891 -7.9366 110° East 456 525 37,000  Level FlightAware UK
01:28AM 52.6756 -7.8767 110° East 456 525 37,000  Level FlightAware UK
01:28AM 52.6680 -7.8440 110° East 467 537 37,000  Level FlightAware
01:28AM 52.6532 -7.7769 110° East 456 525 37,000  Level FlightAware UK
01:29AM 52.6396 -7.7164 110° East 458 527 37,000  Level FlightAware UK
01:29AM 52.6360 -7.7000 110° East 467 537 37,000  Level FlightAware
01:29AM 52.6217 -7.6366 110° East 458 527 37,000  Level FlightAware UK
01:29AM 52.6082 -7.5768 110° East 458 527 37,000  Level FlightAware UK
01:30AM 52.6060 -7.5680 110° East 466 536 37,000  Level FlightAware
01:30AM 52.5900 -7.4973 110° East 458 527 37,000  Level FlightAware UK
01:30AM 52.5763 -7.4378 111° Southeast 458 527 37,000  Level FlightAware UK
01:30AM 52.5770 -7.4430 111° Southeast 467 537 37,000  Level FlightAware
01:30AM 52.5626 -7.3784 111° Southeast 458 527 37,000  Level FlightAware UK
01:31AM 52.5489 -7.3190 111° Southeast 456 525 37,000  Level FlightAware UK
01:31AM 52.5430 -7.2940 111° Southeast 466 536 37,000  Level FlightAware
01:31AM 52.5306 -7.2399 111° Southeast 456 525 37,000  Level FlightAware UK
01:31AM 52.5168 -7.1805 111° Southeast 456 525 37,000  Level FlightAware UK
01:32AM 52.5120 -7.1590 111° Southeast 466 536 37,000  Level FlightAware
01:32AM 52.4940 -7.0815 111° Southeast 456 525 37,000  Level FlightAware UK
01:32AM 52.4802 -7.0222 111° Southeast 458 527 37,000  Level FlightAware UK
01:32AM 52.4780 -7.0120 111° Southeast 466 536 37,000  Level FlightAware
01:33AM 52.4616 -6.9432 111° Southeast 458 527 37,000  Level FlightAware UK
01:33AM 52.4476 -6.8841 111° Southeast 458 527 37,000  Level FlightAware UK
01:33AM 52.4470 -6.8820 111° Southeast 467 537 37,000  Level FlightAware
01:33AM 52.4335 -6.8250 111° Southeast 456 525 37,000  Level FlightAware UK
01:34AM 52.4195 -6.7659 111° Southeast 458 527 37,000  Level FlightAware UK
01:34AM 52.4120 -6.7330 111° Southeast 467 537 37,000  Level FlightAware
01:34AM 52.3962 -6.6673 111° Southeast 458 527 37,000  Level FlightAware UK
01:34AM 52.3822 -6.6081 111° Southeast 458 527 37,000  Level FlightAware UK
01:34AM 52.3810 -6.6060 111° Southeast 467 537 37,000  Level FlightAware
01:35AM 52.3682 -6.5490 111° Southeast 458 527 37,000  Level FlightAware UK
01:35AM 52.3540 -6.4899 111° Southeast 460 529 37,000  Level FlightAware UK
01:35AM 52.3398 -6.4310 112° Southeast 462 532 37,000  Level FlightAware UK
01:35AM 52.3350 -6.4120 112° Southeast 467 537 37,000  Level FlightAware
01:36AM 52.3208 -6.3524 112° Southeast 460 529 37,000  Level FlightAware UK
01:36AM 52.3065 -6.2935 112° Southeast 460 529 37,000  Level FlightAware UK
01:36AM 52.3030 -6.2810 112° Southeast 467 537 37,000  Level FlightAware
01:36AM 52.2873 -6.2144 112° Southeast 464 534 37,000  Level FlightAware UK
01:37AM 52.2730 -6.1555 112° Southeast 464 534 37,000  Level FlightAware UK
01:37AM 52.2720 -6.1500 112° Southeast 466 536 37,000  Level FlightAware
01:37AM 52.2588 -6.0967 112° Southeast 462 532 37,000  Level FlightAware UK
01:37AM 52.2445 -6.0381 112° Southeast 464 534 37,000  Level FlightAware UK
01:37AM 52.2410 -6.0220 112° Southeast 465 535 37,000  Level FlightAware
01:38AM 52.2253 -5.9602 112° Southeast 462 532 37,000  Level FlightAware UK
01:38AM 52.2109 -5.9018 112° Southeast 460 529 37,000  Level FlightAware UK
01:38AM 52.2030 -5.8700 112° Southeast 465 535 37,000  Level FlightAware
01:38AM 52.1869 -5.8046 112° Southeast 458 527 37,000  Level FlightAware UK
01:39AM 52.1725 -5.7464 112° Southeast 458 527 37,000  Level FlightAware UK
01:39AM 52.1700 -5.7360 112° Southeast 464 534 37,000  Level FlightAware
01:39AM 52.1485 -5.6494 112° Southeast 460 529 37,000  Level FlightAware UK
01:40AM 52.1380 -5.6050 112° Southeast 465 535 37,000  Level FlightAware
01:40AM 52.1340 -5.5913 112° Southeast 460 529 37,000  Level FlightAware UK
01:40AM 52.1244 -5.5525 112° Southeast 462 532 37,000  Level FlightAware UK
01:40AM 52.1099 -5.4945 112° Southeast 462 532 37,000  Level FlightAware UK
01:40AM 52.1030 -5.4690 112° Southeast 463 533 37,000  Level FlightAware
01:40AM 52.0904 -5.4171 112° Southeast 466 536 37,000  Level FlightAware UK
01:41AM 52.0758 -5.3592 112° Southeast 466 536 37,000  Level FlightAware UK
01:41AM 52.0710 -5.3400 112° Southeast 463 533 37,000  Level FlightAware
01:41AM 52.0513 -5.2623 112° Southeast 462 532 37,000  Level FlightAware UK
01:42AM 52.0366 -5.2046 112° Southeast 460 529 37,000  Level FlightAware UK
01:42AM 52.0350 -5.2000 112° Southeast 463 533 37,000  Level FlightAware
01:42AM 52.0219 -5.1470 112° Southeast 464 534 37,000  Level FlightAware UK
01:42AM 52.0072 -5.0893 112° Southeast 464 534 37,000  Level FlightAware UK
01:42AM 52.0010 -5.0550 112° Southeast 459 528 37,000  Level FlightAware
01:43AM 51.9903 -4.9901 112° Southeast 466 536 37,000  Level FlightAware UK
01:43AM 51.9840 -4.9220 112° Southeast 456 525 37,000  Level FlightAware
01:43AM 51.9791 -4.8685 112° Southeast 462 532 37,000  Level FlightAware UK
01:44AM 51.9713 -4.7877 99° East 464 534 37,000  Level FlightAware UK
01:44AM 51.9710 -4.7860 99° East 456 525 37,000  Level FlightAware
01:44AM 51.9655 -4.7271 99° East 466 536 37,000  Level FlightAware UK
01:44AM 51.9599 -4.6666 99° East 466 536 37,000  Level FlightAware UK
01:44AM 51.9580 -4.6400 99° East 454 522 37,000  Level FlightAware
01:45AM 51.9509 -4.5659 99° East 466 536 37,000  Level FlightAware UK
01:45AM 51.9450 -4.5010 99° East 452 520 37,000  Level FlightAware
01:45AM 51.9399 -4.4445 99° East 464 534 37,000  Level FlightAware UK
01:46AM 51.9342 -4.3843 99° East 462 532 37,000  Level FlightAware UK
01:46AM 51.9310 -4.3540 99° East 452 520 37,000  Level FlightAware
01:46AM 51.9248 -4.2842 99° East 462 532 37,000  Level FlightAware UK
01:47AM 51.9190 -4.2200 99° East 450 518 37,000  Level FlightAware
01:47AM 51.9116 -4.1446 99° East 460 529 37,000  Level FlightAware UK
01:47AM 51.9050 -4.0740 99° East 449 517 37,000  Level FlightAware
01:48AM 51.8986 -4.0055 99° East 456 525 37,000  Level FlightAware UK
01:48AM 51.8931 -3.9459 99° East 454 522 37,000  Level FlightAware UK
01:48AM 51.8930 -3.9420 99° East 449 517 37,000  Level FlightAware
01:48AM 51.8874 -3.8864 99° East 456 525 37,000  Level FlightAware UK
01:48AM 51.8817 -3.8268 99° East 458 527 37,000  Level FlightAware UK
01:49AM 51.8790 -3.7940 99° East 449 517 37,000  Level FlightAware
01:49AM 51.8722 -3.7268 99° East 458 527 37,000  Level FlightAware UK
01:49AM 51.8670 -3.6690 99° East 449 517 37,000  Level FlightAware
01:50AM 51.8610 -3.6076 99° East 460 529 37,000  Level FlightAware UK
01:50AM 51.8555 -3.5480 99° East 458 527 37,000  Level FlightAware UK
01:50AM 51.8530 -3.5220 99° East 449 517 37,000  Level FlightAware
01:50AM 51.8481 -3.4686 99° East 458 527 37,000  Level FlightAware UK
01:51AM 51.8425 -3.4084 99° East 458 527 37,000  Level FlightAware UK
01:51AM 51.8390 -3.3710 99° East 448 516 37,000  Level FlightAware
01:51AM 51.8290 -3.2696 99° East 458 527 37,000  Level FlightAware UK
01:51AM 51.8263 -3.2435 99° East 449 517 37,000  Level FlightAware ADS-B
01:52AM 51.8210 -3.1905 99° East 458 527 37,000  Level FlightAware UK
01:52AM 51.8163 -3.1422 99° East 448 516 37,000  Level FlightAware ADS-B
01:52AM 51.8112 -3.0915 99° East 456 525 37,000  Level FlightAware UK
01:52AM 51.8063 -3.0402 99° East 449 517 37,000  Level FlightAware ADS-B
01:53AM 51.7997 -2.9719 99° East 456 525 37,000  Level FlightAware UK
01:53AM 51.7957 -2.9331 99° East 450 518 37,000  Level FlightAware ADS-B
01:53AM 51.7899 -2.8728 99° East 454 522 37,000  Level FlightAware UK
01:53AM 51.7856 -2.8321 99° East 450 518 37,000  Level FlightAware ADS-B
01:54AM 51.7798 -2.7738 99° East 454 522 37,000  Level FlightAware UK
01:54AM 51.7754 -2.7306 99° East 451 519 37,000  Level FlightAware ADS-B
01:54AM 51.7698 -2.6746 99° East 454 522 37,000  Level FlightAware UK
01:54AM 51.7653 -2.6314 99° East 451 519 37,000  Level FlightAware ADS-B
01:55AM 51.7595 -2.5747 99° East 458 527 37,000  Level FlightAware UK
01:55AM 51.7549 -2.5301 99° East 451 519 37,000  Level FlightAware ADS-B
01:56AM 51.7444 -2.4300 100° East 451 519 37,000  Level FlightAware ADS-B
01:56AM 51.7390 -2.3759 100° East 454 522 37,000  Level FlightAware UK
01:56AM 51.7338 -2.3290 100° East 452 520 37,000  Level FlightAware ADS-B
01:56AM 51.7263 -2.2567 100° East 456 525 37,000  Level FlightAware UK
01:57AM 51.7228 -2.2257 100° East 453 521 37,000  Level FlightAware ADS-B
01:57AM 51.7113 -2.1179 100° East 452 520 37,000  Level FlightAware ADS-B
01:57AM 51.7048 -2.0572 100° East 458 527 37,000  Level FlightAware UK
01:58AM 51.7001 -2.0138 100° East 453 521 37,000  Level FlightAware ADS-B
01:58AM 51.6940 -1.9577 100° East 456 525 37,000  Level FlightAware UK
01:58AM 51.6891 -1.9130 100° East 454 522 37,000  Level FlightAware ADS-B
01:58AM 51.6832 -1.8575 100° East 460 529 37,000  Level FlightAware UK
01:59AM 51.6781 -1.8125 100° East 454 522 37,000  Level FlightAware ADS-B
01:59AM 51.6721 -1.7573 100° East 460 529 37,000  Level FlightAware UK
01:59AM 51.6659 -1.7019 100° East 454 522 37,000  Level FlightAware ADS-B
02:00AM 51.6542 -1.5970 100° East 455 524 37,000  Level FlightAware ADS-B
02:00AM 51.6428 -1.4950 100° East 454 522 37,000  Level FlightAware ADS-B
02:00AM 51.6363 -1.4377 100° East 460 529 37,000  Level FlightAware UK
02:01AM 51.6313 -1.3941 100° East 454 522 37,000  Level FlightAware ADS-B
02:01AM 51.6249 -1.3382 100° East 460 529 37,000  Level FlightAware UK
02:01AM 51.6194 -1.2914 100° East 455 524 37,000  Level FlightAware ADS-B
02:02AM 51.6078 -1.1909 100° East 455 524 37,000  Level FlightAware ADS-B
02:02AM 51.5996 -1.1189 100° East 464 534 37,000  Level FlightAware UK
02:02AM 51.5963 -1.0903 100° East 454 522 37,000  Level FlightAware ADS-B
02:02AM 51.5904 -1.0395 100° East 464 534 37,000  Level FlightAware UK
02:03AM 51.5845 -0.9905 100° East 453 521 37,000  Level FlightAware ADS-B
02:03AM 51.5785 -0.9405 100° East 464 534 37,000  Level FlightAware UK
02:03AM 51.5727 -0.8907 100° East 453 521 37,000  Level FlightAware ADS-B
02:04AM 51.5607 -0.7894 101° East 452 520 37,000  Level FlightAware ADS-B
02:04AM 51.5529 -0.7237 101° East 462 532 37,000  Level FlightAware UK
02:04AM 51.5474 -0.6789 101° East 451 519 37,000  Level FlightAware ADS-B
02:05AM 51.5409 -0.6249 101° East 460 529 37,000  Level FlightAware UK
02:05AM 51.5355 -0.5796 101° East 450 518 37,000  Level FlightAware ADS-B
02:05AM 51.5265 -0.5064 101° East 462 532 37,000  Level FlightAware UK
02:05AM 51.5234 -0.4800 101° East 449 517 37,000  Level FlightAware ADS-B
02:06AM 51.5099 -0.3709 101° East 449 517 37,000  Level FlightAware ADS-B
02:06AM 51.5026 -0.3108 101° East 462 532 37,000  Level FlightAware UK
02:06AM 51.4977 -0.2731 101° East 448 516 37,000  Level FlightAware ADS-B
02:07AM 51.4856 -0.1753 101° East 447 514 37,000  Level FlightAware ADS-B
02:07AM 51.4781 -0.1155 101° East 460 529 37,000  Level FlightAware UK
02:07AM 51.4731 -0.0751 101° East 446 513 37,000  Level FlightAware ADS-B
02:08AM 51.4606 0.0235 101° East 445 512 37,000  Level FlightAware ADS-B
02:08AM 51.4478 0.1246 101° East 443 510 37,000  Level FlightAware ADS-B
02:09AM 51.4415 0.1740 101° East 460 529 37,000  Level FlightAware UK
02:09AM 51.4353 0.2209 101° East 442 509 37,000  Level FlightAware ADS-B
02:09AM 51.4222 0.3221 102° East 441 507 37,000  Level FlightAware ADS-B
02:10AM 51.4140 0.3852 102° East 460 529 37,000  Level FlightAware UK
02:10AM 51.4044 0.4589 102° East 439 505 37,000  Level FlightAware ADS-B
02:11AM 51.3898 0.5698 102° East 438 504 37,000  Level FlightAware ADS-B
02:11AM 51.3815 0.6331 102° East 452 520 37,000  Level FlightAware UK
02:11AM 51.3761 0.6739 102° East 439 505 37,000  Level FlightAware ADS-B
02:12AM 51.3689 0.7279 102° East 450 518 37,000  Level FlightAware UK
02:12AM 51.3627 0.7740 102° East 438 504 37,000  Level FlightAware ADS-B
02:12AM 51.3537 0.8414 102° East 448 516 37,000  Level FlightAware UK
02:12AM 51.3493 0.8744 102° East 439 505 37,000  Level FlightAware ADS-B
02:13AM 51.3357 0.9742 102° East 440 506 37,000  Level FlightAware ADS-B
02:13AM 51.3253 1.0510 102° East 448 516 37,000  Level FlightAware UK
02:13AM 51.3226 1.0705 102° East 442 509 37,000  Level FlightAware ADS-B
02:14AM 51.3096 1.1664 102° East 454 522 37,000  Level FlightAware UK
02:14AM 51.3063 1.1894 102° East 443 510 37,000  Level FlightAware ADS-B
02:14AM 51.2990 1.2431 102° East 456 525 37,000  Level FlightAware UK
02:15AM 51.2893 1.3201 101° East 456 525 37,000  Level FlightAware UK
02:15AM 51.2820 1.3760 101° East 444 511 37,000  Level FlightAware
02:15AM 51.2748 1.4357 101° East 454 522 37,000  Level FlightAware UK
02:16AM 51.2674 1.4936 102° East 456 525 37,000  Level FlightAware UK
02:16AM 51.2660 1.5050 102° East 446 513 37,000  Level FlightAware
02:16AM 51.2573 1.5707 102° East 454 522 37,000  Level FlightAware UK
02:16AM 51.2470 1.6480 102° East 447 514 37,000  Level FlightAware
02:17AM 51.2367 1.7261 102° East 460 529 37,000  Level FlightAware UK
02:17AM 51.2310 1.7670 102° East 448 516 37,000  Level FlightAware
02:17AM 51.2210 1.8429 102° East 460 529 37,000  Level FlightAware UK
02:18AM 51.2132 1.9010 102° East 458 527 37,000  Level FlightAware UK
02:18AM 51.2120 1.9130 102° East 450 518 37,000  Level FlightAware
02:18AM 51.2026 1.9785 102° East 456 525 37,000  Level FlightAware UK
02:18AM 51.1960 2.0320 102° East 451 519 37,000  Level FlightAware
02:19AM 51.1867 2.0957 102° East 460 529 37,000  Level FlightAware UK
02:19AM 51.1760 2.1735 102° East 458 527 37,000  Level FlightAware UK
02:19AM 51.1770 2.1700 102° East 453 521 37,000  Level FlightAware
02:20AM 51.1654 2.2516 102° East 458 527 37,000  Level FlightAware UK
02:20AM 51.1580 2.3080 102° East 454 522 37,000  Level FlightAware
02:21AM 51.1380 2.4510 103° East 455 524 37,000  Level FlightAware
02:21AM 51.1301 2.5064 103° East 460 529 37,000  Level FlightAware UK
02:21AM 51.1170 2.5980 103° East 457 526 37,000  Level FlightAware
02:22AM 51.0980 2.7350 102° East 458 527 37,000  Level FlightAware
02:22AM 51.0885 2.8013 102° East 466 536 37,000  Level FlightAware UK
02:23AM 51.0780 2.8710 102° East 458 527 37,000  Level FlightAware
02:23AM 51.0590 3.0070 102° East 456 525 37,000  Level FlightAware
02:24AM 51.0410 3.1310 102° East 455 524 37,000  Level FlightAware
02:24AM 51.0376 3.1540 102° East 466 536 37,000  Level FlightAware UK
02:24AM 51.0291 3.2132 102° East 464 534 37,000  Level FlightAware UK
02:25AM 51.0180 3.2860 102° East 455 524 37,000  Level FlightAware
02:25AM 51.0000 3.4060 103° East 455 524 37,000  Level FlightAware
02:26AM 50.9720 3.5960 103° East 453 521 37,000  Level FlightAware
02:27AM 50.9624 3.6593 103° East 462 532 37,000  Level FlightAware UK
02:27AM 50.9500 3.7410 103° East 453 521 37,000  Level FlightAware
02:28AM 50.9300 3.8700 104° East 452 520 37,000  Level FlightAware
02:29AM 50.9090 4.0100 103° East 451 519 37,000  Level FlightAware
02:29AM 50.8890 4.1390 104° East 450 518 37,000  Level FlightAware
02:30AM 50.8720 4.2460 104° East 447 514 37,000  Level FlightAware
02:31AM 50.8490 4.3920 104° East 444 511 37,000  Level FlightAware
02:31AM 50.8321 4.5010 104° East 456 525 37,000  Level FlightAware UK
02:31AM 50.8300 4.5150 104° East 441 507 37,000  Level FlightAware
02:32AM 50.8178 4.5952 104° East 456 525 37,000  Level FlightAware UK
02:32AM 50.8070 4.6540 104° East 438 504 37,000  Level FlightAware
02:33AM 50.7899 4.7831 104° East 464 534 37,000 120 Level FlightAware UK
02:33AM 50.7880 4.7760 104° East 435 501 37,100  Climbing FlightAware
02:33AM 50.7680 4.9000 104° East 432 497 37,000 -120 Descending FlightAware
02:34AM 50.7460 5.0330 105° East 428 493 37,000  Level FlightAware
02:35AM 50.7340 5.1070 104° East 426 490 37,000  Level FlightAware
02:35AM 50.7080 5.2620 105° East 422 486 37,000  Level FlightAware
02:36AM 50.6850 5.3970 105° East 418 481 37,000  Level FlightAware
02:37AM 50.6590 5.5540 105° East 416 479 37,000  Level FlightAware
02:38AM 50.6380 5.6780 105° East 416 479 37,000  Level FlightAware
02:38AM 50.6190 5.7890 105° East 415 478 37,000  Level FlightAware
02:39AM 50.5940 5.9350 105° East 412 474 37,000  Level FlightAware
02:40AM 50.5740 6.0500 105° East 412 474 37,000  Level FlightAware
02:40AM 50.5540 6.1650 105° East 415 478 37,000  Level FlightAware
02:41AM 50.5300 6.2970 106° East 417 480 37,000  Level FlightAware
02:42AM 50.5100 6.4120 105° East 417 480 37,000  Level FlightAware
02:43AM 50.4880 6.5360 106° East 418 481 37,000  Level FlightAware
02:43AM 50.4660 6.6600 106° East 418 481 37,000  Level FlightAware
02:44AM 50.4430 6.7840 106° East 421 484 37,000  Level FlightAware
02:45AM 50.4140 6.9430 106° East 421 484 37,000  Level FlightAware
02:46AM 50.3900 7.0770 106° East 421 484 37,000  Level FlightAware
02:46AM 50.3680 7.1910 107° East 421 484 37,000  Level FlightAware
02:47AM 50.3460 7.3110 106° East 421 484 37,000  Level FlightAware
02:48AM 50.3230 7.4370 106° East 421 484 37,000  Level FlightAware
02:48AM 50.2970 7.5420 111° Southeast 419 482 37,000  Level FlightAware
02:49AM 50.2530 7.6720 118° Southeast 417 480 37,000  Level FlightAware
02:50AM 50.2180 7.7740 118° Southeast 417 480 37,000  Level FlightAware
02:51AM 50.1760 7.8900 119° Southeast 415 478 37,000  Level FlightAware
02:51AM 50.1390 7.9940 119° Southeast 415 478 37,000  Level FlightAware
02:52AM 50.1010 8.1020 119° Southeast 414 476 37,000  Level FlightAware
02:53AM 50.0580 8.2220 119° Southeast 414 476 37,000  Level FlightAware
02:53AM 50.0200 8.3260 120° Southeast 414 476 37,000  Level FlightAware
02:54AM 49.9840 8.4250 119° Southeast 414 476 37,000 -240 Level FlightAware
02:55AM 49.9360 8.5570 119° Southeast 415 478 36,700 -720 Descending FlightAware
02:55AM 49.9010 8.6530 119° Southeast 414 476 36,000 -840 Descending FlightAware
02:56AM 49.8620 8.7600 119° Southeast 402 463 35,600 -720 Descending FlightAware
02:57AM 49.8210 8.8710 120° Southeast 398 458 35,000 -480 Descending FlightAware
02:58AM 49.7850 8.9690 120° Southeast 396 456 35,000  Level FlightAware
02:58AM 49.7450 9.0770 120° Southeast 398 458 35,000  Level FlightAware
02:59AM 49.7080 9.1750 120° Southeast 399 459 35,000 -240 Level FlightAware
03:00AM 49.6710 9.2750 120° Southeast 398 458 34,700 -900 Descending FlightAware
03:00AM 49.6330 9.3760 120° Southeast 403 464 33,800 -1,440 Descending FlightAware
03:02AM 49.5490 9.5370 129° Southeast 414 476 32,100 -1,620 Descending FlightAware
03:02AM 49.5010 9.6200 132° Southeast 405 466 30,900 -2,340 Descending FlightAware
03:03AM 49.4460 9.7160 131° Southeast 401 461 28,900 -2,640 Descending FlightAware
03:04AM 49.3920 9.8100 131° Southeast 395 455 27,100 -2,280 Descending FlightAware
03:04AM 49.3480 9.8850 132° Southeast 394 453 25,900 -1,560 Descending FlightAware
03:05AM 49.3010 9.9670 131° Southeast 383 441 25,100 -660 Descending FlightAware
03:06AM 49.2450 10.0630 132° Southeast 391 450 25,000 -120 Descending FlightAware
03:06AM 49.1910 10.1560 132° Southeast 391 450 25,000  Level FlightAware
03:07AM 49.1440 10.2360 132° Southeast 391 450 25,000  Level FlightAware
03:08AM 49.0900 10.3240 133° Southeast 398 458 25,000 -600 Level FlightAware
03:09AM 49.0300 10.4190 134° Southeast 394 453 24,100 -1,560 Descending FlightAware
03:09AM 48.9830 10.4950 133° Southeast 394 453 22,900 -1,980 Descending FlightAware
03:10AM 48.9310 10.5790 133° Southeast 391 450 21,400 -1,800 Descending FlightAware
03:11AM 48.8640 10.6840 134° Southeast 388 447 19,700 -2,040 Descending FlightAware
03:12AM 48.7970 10.7900 134° Southeast 378 435 17,800 -2,400 Descending FlightAware
03:12AM 48.7890 10.8010 138° Southeast 378 435 16,600 -1,680 Descending FlightAware
03:13AM 48.6890 10.9420 137° Southeast 15,100 -1,560 Descending FlightAware
03:14AM 48.6080 11.0580 137° Southeast 355 409 13,500 -2,160 Descending FlightAware
03:15AM 48.5460 11.1450 137° Southeast 353 406 11,100 -1,620 Descending FlightAware
03:16AM 48.4970 11.2140 137° Southeast 353 406 11,000 -120 Descending FlightAware
03:17AM 48.4330 11.3050 137° Southeast 336 387 11,000 -360 Level FlightAware
03:17AM 48.4230 11.3320 119° Southeast 320 368 10,600 -1,980 Descending FlightAware
03:17AM 48.4180 11.3740 100° East 313 360 9,900 -1,920 Descending FlightAware
03:18AM 48.4230 11.4530 85° East 329 379 9,100 -1,020 Descending FlightAware
03:18AM 48.4280 11.5110 83° East 322 371 9,000 -120 Descending FlightAware
03:19AM 48.4320 11.5650 84° East 321 369 9,000  Level FlightAware
03:19AM 48.4380 11.6330 82° East 323 372 9,000  Level FlightAware
03:19AM 48.4400 11.6660 85° East 323 372 9,000 -960 Level FlightAware
03:20AM 48.4450 11.7330 84° East 311 358 8,300 -2,100 Descending FlightAware
03:20AM 48.4490 11.7850 83° East 315 362 7,100 -2,880 Descending FlightAware
03:21AM 48.4510 11.8080 83° East 316 364 6,600 -2,640 Descending FlightAware
03:21AM 48.4570 11.8850 83° East 314 361 5,100 -1,980 Descending FlightAware
03:22AM 48.4610 11.9360 83° East 287 330 4,700 -900 Descending FlightAware
03:22AM 48.4650 11.9930 84° East 257 296 4,300 -780 Descending FlightAware
03:22AM 48.4680 12.0360 84° East 243 280 4,000 -480 Descending FlightAware
03:23AM 48.4560 12.1030 105° East 232 267 3,800 -180 Descending FlightAware
03:24AM 48.4320 12.1240 150° Southeast 237 273 3,800  Level FlightAware
03:24AM 48.4210 12.1280 166° South 233 268 3,800  Level FlightAware
03:24AM 48.4020 12.1190 197° South 215 247 3,800  Level FlightAware
03:24AM 48.3960 12.1080 231° Southwest 211 243 3,800  Level FlightAware
03:25AM 48.3850 12.0810 238° Southwest 212 244 3,800 -240 Level FlightAware
03:25AM 48.3840 12.0740 258° West 212 244 3,700  Descending FlightAware
03:25AM 48.3830 12.0460 267° West 191 220 3,800 120 Climbing FlightAware
03:26AM 48.3810 12.0090 265° West 180 207 3,800 -600 Level FlightAware
03:26AM 48.3790 11.9770 265° West 183 211 3,300 -1,080 Descending FlightAware
03:26AM 48.3770 11.9580 261° West 181 208 3,100 -960 Descending FlightAware
03:27AM 48.3750 11.9250 265° West 159 183 2,600 -900 Descending FlightAware
03:27AM 48.3720 11.8950 261° West 131 151 2,200 -780 Descending FlightAware
03:28AM 48.3710 11.8720 266° West 129 148 1,900 -660 Descending FlightAware
03:28AM 48.3690 11.8450 264° West 129 148 1,600 -660 Descending FlightAware
03:29AM 48.3670 11.8230 262° West 132 152 1,300 -780 Descending FlightAware
03:29AM 48.3650 11.7990 263° West 88 101 -2,640 Descending FlightAware
03:29AM 48.3640 11.7900 261° West 34 39  Level FlightAware
03:30AM 48.3630 11.7870 243° Southwest 29 33  Level FlightAware